createdAt,value
2018-09-13T00:01:48.113Z,15.02
2018-09-13T00:04:20.135Z,15.00
2018-09-13T00:06:52.188Z,15.08
2018-09-13T00:09:24.207Z,15.14
2018-09-13T00:11:56.276Z,15.03
2018-09-13T00:14:28.292Z,14.95
2018-09-13T00:17:00.349Z,14.91
2018-09-13T00:19:32.387Z,14.88
2018-09-13T00:22:04.448Z,14.85
2018-09-13T00:24:36.467Z,14.77
2018-09-13T00:27:08.539Z,14.74
2018-09-13T00:29:40.640Z,14.73
2018-09-13T00:32:12.722Z,14.79
2018-09-13T00:34:44.787Z,14.87
2018-09-13T00:37:16.957Z,14.92
2018-09-13T00:39:49.030Z,14.87
2018-09-13T00:42:21.116Z,14.78
2018-09-13T00:44:53.183Z,14.66
2018-09-13T00:47:25.242Z,14.62
2018-09-13T00:49:57.367Z,14.62
2018-09-13T00:52:29.496Z,14.69
2018-09-13T00:55:01.529Z,14.71
2018-09-13T00:57:33.568Z,14.72
2018-09-13T01:00:06.101Z,14.57
2018-09-13T01:02:38.207Z,14.44
2018-09-13T01:05:10.276Z,14.55
2018-09-13T01:07:42.371Z,14.60
2018-09-13T01:10:14.404Z,14.73
2018-09-13T01:12:46.496Z,14.67
2018-09-13T01:15:18.561Z,14.58
2018-09-13T01:17:50.680Z,14.49
2018-09-13T01:20:22.796Z,14.40
2018-09-13T01:22:54.859Z,14.44
2018-09-13T01:25:26.911Z,14.60
2018-09-13T01:27:58.974Z,14.69
2018-09-13T01:30:31.039Z,14.57
2018-09-13T01:33:03.148Z,14.54
2018-09-13T01:35:35.206Z,14.63
2018-09-13T01:38:07.303Z,14.59
2018-09-13T01:40:39.339Z,14.58
2018-09-13T01:43:11.388Z,14.50
2018-09-13T01:45:43.528Z,14.40
2018-09-13T01:48:15.596Z,14.26
2018-09-13T01:50:47.639Z,14.23
2018-09-13T01:53:19.731Z,14.27
2018-09-13T01:55:51.784Z,14.36
2018-09-13T01:58:23.874Z,14.30
2018-09-13T02:00:56.063Z,14.32
2018-09-13T02:03:28.135Z,14.38
2018-09-13T02:06:00.176Z,14.48
2018-09-13T02:08:32.268Z,14.56
2018-09-13T02:11:04.383Z,14.63
2018-09-13T02:13:36.426Z,14.68
2018-09-13T02:16:08.507Z,14.61
2018-09-13T02:18:40.604Z,14.50
2018-09-13T02:21:12.693Z,14.42
2018-09-13T02:23:45.074Z,14.28
2018-09-13T02:26:17.178Z,14.28
2018-09-13T02:28:49.361Z,14.48
2018-09-13T02:31:21.413Z,14.53
2018-09-13T02:33:53.522Z,14.50
2018-09-13T02:36:25.571Z,14.57
2018-09-13T02:38:57.638Z,14.60
2018-09-13T02:41:29.701Z,14.62
2018-09-13T02:44:01.999Z,14.69
2018-09-13T02:46:34.154Z,14.74
2018-09-13T02:49:06.298Z,14.77
2018-09-13T02:51:38.347Z,14.78
2018-09-13T02:54:10.425Z,14.75
2018-09-13T02:56:43.093Z,14.83
2018-09-13T02:59:15.155Z,14.90
2018-09-13T03:01:47.224Z,14.92
2018-09-13T03:04:19.342Z,15.07
2018-09-13T03:06:51.586Z,15.07
2018-09-13T03:09:23.662Z,15.17
2018-09-13T03:11:55.790Z,15.22
2018-09-13T03:14:27.853Z,15.17
2018-09-13T03:16:59.949Z,15.19
2018-09-13T03:19:32.012Z,15.26
2018-09-13T03:22:04.754Z,15.35
2018-09-13T03:24:36.832Z,15.41
2018-09-13T03:27:08.895Z,15.50
2018-09-13T03:29:40.987Z,15.59
2018-09-13T03:32:13.009Z,15.73
2018-09-13T03:34:45.072Z,15.72
2018-09-13T03:37:17.200Z,15.71
2018-09-13T03:39:49.336Z,15.72
2018-09-13T03:42:21.508Z,15.73
2018-09-13T03:44:54.117Z,15.78
2018-09-13T03:47:26.497Z,15.86
2018-09-13T03:49:58.592Z,15.89
2018-09-13T03:52:30.675Z,15.92
2018-09-13T03:55:02.884Z,15.90
2018-09-13T03:57:35.009Z,15.82
2018-09-13T04:00:07.335Z,15.79
2018-09-13T04:02:39.397Z,15.81
2018-09-13T04:05:11.521Z,15.76
2018-09-13T04:07:43.587Z,15.83
2018-09-13T04:10:15.648Z,15.85
2018-09-13T04:12:48.219Z,15.79
2018-09-13T04:15:20.284Z,15.87
2018-09-13T04:17:52.399Z,15.85
2018-09-13T04:20:24.452Z,15.94
2018-09-13T04:22:56.482Z,15.93
2018-09-13T04:25:28.503Z,15.93
2018-09-13T04:28:00.589Z,15.96
2018-09-13T04:30:32.628Z,15.98
2018-09-13T04:33:04.640Z,15.92
2018-09-13T04:35:36.733Z,15.91
2018-09-13T04:38:09.417Z,15.98
2018-09-13T04:40:41.518Z,15.98
2018-09-13T04:43:13.568Z,15.99
2018-09-13T04:45:46.149Z,16.03
2018-09-13T04:48:18.202Z,16.12
2018-09-13T04:50:50.258Z,16.21
2018-09-13T04:53:22.278Z,16.30
2018-09-13T04:55:54.312Z,16.35
2018-09-13T04:58:26.583Z,16.44
2018-09-13T05:00:58.601Z,16.50
2018-09-13T05:03:30.619Z,16.52
2018-09-13T05:06:03.422Z,16.55
2018-09-13T05:08:35.426Z,16.50
2018-09-13T05:11:07.463Z,16.69
2018-09-13T05:13:39.570Z,16.73
2018-09-13T05:16:11.728Z,16.69
2018-09-13T05:18:43.731Z,16.71
2018-09-13T05:21:15.763Z,16.74
2018-09-13T05:23:47.783Z,16.63
2018-09-13T05:26:19.855Z,16.67
2018-09-13T05:28:51.974Z,16.70
2018-09-13T05:31:23.995Z,16.77
2018-09-13T05:33:56.064Z,16.86
2018-09-13T05:36:28.104Z,16.90
2018-09-13T05:39:00.277Z,17.01
2018-09-13T05:41:32.259Z,17.09
2018-09-13T05:44:04.294Z,17.12
2018-09-13T05:46:36.479Z,17.17
2018-09-13T05:49:09.103Z,17.19
2018-09-13T05:51:41.228Z,17.48
2018-09-13T05:54:13.340Z,17.55
2018-09-13T05:56:45.390Z,17.67
2018-09-13T05:59:17.522Z,17.82
2018-09-13T06:01:49.589Z,17.95
2018-09-13T06:04:21.662Z,18.05
2018-09-13T06:06:53.750Z,18.04
2018-09-13T06:09:25.839Z,18.05
2018-09-13T06:11:57.979Z,18.13
2018-09-13T06:14:30.024Z,18.20
2018-09-13T06:17:02.113Z,18.28
2018-09-13T06:19:34.142Z,18.30
2018-09-13T06:22:06.479Z,18.54
2018-09-13T06:24:38.527Z,18.76
2018-09-13T06:27:10.600Z,19.04
2018-09-13T06:29:42.678Z,19.38
2018-09-13T06:32:14.771Z,19.62
2018-09-13T06:34:46.912Z,19.76
2018-09-13T06:37:18.999Z,19.62
2018-09-13T06:39:51.039Z,19.48
2018-09-13T06:42:23.289Z,19.50
2018-09-13T06:44:55.315Z,19.66
2018-09-13T06:47:27.343Z,19.53
2018-09-13T06:49:59.481Z,19.59
2018-09-13T06:52:31.515Z,19.54
2018-09-13T06:55:03.604Z,19.43
2018-09-13T06:57:35.685Z,19.28
2018-09-13T07:00:07.760Z,19.34
2018-09-13T07:02:39.851Z,19.04
2018-09-13T07:05:11.923Z,18.92
2018-09-13T07:07:44.038Z,18.73
2018-09-13T07:10:16.120Z,18.62
2018-09-13T07:12:48.186Z,18.54
2018-09-13T07:15:20.288Z,18.50
2018-09-13T07:17:52.415Z,18.49
2018-09-13T07:20:25.480Z,18.44
2018-09-13T07:22:57.620Z,18.36
2018-09-13T07:25:29.754Z,18.39
2018-09-13T07:28:01.847Z,18.32
2018-09-13T07:30:33.911Z,18.32
2018-09-13T07:33:05.946Z,18.30
2018-09-13T07:35:37.995Z,18.35
2018-09-13T07:38:10.002Z,18.28
2018-09-13T07:40:42.047Z,18.32
2018-09-13T07:43:14.055Z,18.24
2018-09-13T07:45:46.074Z,18.18
2018-09-13T07:48:18.089Z,18.09
2018-09-13T07:50:50.155Z,18.05
2018-09-13T07:53:22.179Z,18.03
2018-09-13T07:55:54.195Z,18.07
2018-09-13T07:58:26.237Z,18.08
2018-09-13T08:00:58.260Z,18.05
2018-09-13T08:03:30.315Z,18.00
2018-09-13T08:06:02.353Z,18.13
2018-09-13T08:08:34.379Z,18.13
2018-09-13T08:11:06.511Z,17.95
2018-09-13T08:13:38.527Z,18.00
2018-09-13T08:16:10.573Z,17.95
2018-09-13T08:18:42.611Z,17.91
2018-09-13T08:21:14.825Z,17.97
2018-09-13T08:23:46.837Z,17.95
2018-09-13T08:26:18.977Z,18.05
2018-09-13T08:28:51.146Z,18.08
2018-09-13T08:31:23.245Z,18.11
2018-09-13T08:33:55.377Z,18.07
2018-09-13T08:36:27.648Z,18.11
2018-09-13T08:38:59.846Z,18.23
2018-09-13T08:41:31.967Z,18.20
2018-09-13T08:44:04.075Z,18.19
2018-09-13T08:46:36.208Z,18.11
2018-09-13T08:49:08.287Z,18.07
2018-09-13T08:51:40.356Z,18.07
2018-09-13T08:54:12.487Z,18.05
2018-09-13T08:56:44.515Z,18.11
2018-09-13T08:59:16.604Z,18.14
2018-09-13T09:01:48.683Z,18.18
2018-09-13T09:04:21.370Z,18.09
2018-09-13T09:06:53.415Z,18.08
2018-09-13T09:09:25.519Z,18.09
2018-09-13T09:11:59.891Z,18.03
2018-09-13T09:14:31.975Z,17.87
2018-09-13T09:17:04.150Z,17.80
2018-09-13T09:19:36.549Z,17.71
2018-09-13T09:22:08.692Z,17.65
2018-09-13T09:24:40.804Z,17.77
2018-09-13T09:27:12.949Z,17.76
2018-09-13T09:29:45.089Z,17.83
2018-09-13T09:32:17.187Z,17.89
2018-09-13T09:34:49.417Z,17.95
2018-09-13T09:37:21.443Z,17.98
2018-09-13T09:39:53.590Z,18.02
2018-09-13T09:42:25.764Z,18.12
2018-09-13T09:44:57.916Z,18.23
2018-09-13T09:47:30.084Z,18.34
2018-09-13T09:50:02.257Z,18.47
2018-09-13T09:52:34.434Z,18.68
2018-09-13T09:55:06.640Z,18.93
2018-09-13T09:57:39.541Z,19.23
2018-09-13T10:00:11.793Z,19.65
2018-09-13T10:02:44.030Z,20.28
2018-09-13T10:05:16.280Z,21.05
2018-09-13T10:07:48.617Z,22.24
2018-09-13T10:10:21.948Z,23.09
2018-09-13T10:12:55.195Z,23.05
2018-09-13T10:15:33.083Z,23.68
2018-09-13T10:18:10.942Z,23.66
2018-09-13T10:20:48.965Z,23.55
2018-09-13T10:23:26.975Z,23.59
2018-09-13T10:26:04.962Z,23.07
2018-09-13T10:28:43.049Z,23.19
2018-09-13T10:31:20.676Z,23.31
2018-09-13T10:33:58.634Z,22.96
2018-09-13T10:37:38.097Z,22.94
2018-09-13T10:40:15.740Z,23.34
2018-09-13T10:42:53.777Z,23.38
2018-09-13T10:45:31.793Z,23.25
2018-09-13T10:48:11.007Z,23.28
2018-09-13T10:50:47.638Z,23.67
2018-09-13T10:53:25.420Z,23.43
2018-09-13T10:55:57.614Z,23.93
2018-09-13T10:58:29.765Z,24.12
2018-09-13T11:01:03.227Z,23.90
2018-09-13T11:03:35.388Z,24.44
2018-09-13T11:06:07.493Z,24.83
2018-09-13T11:08:39.533Z,25.31
2018-09-13T11:11:12.177Z,25.21
2018-09-13T11:13:49.808Z,24.98
2018-09-13T11:16:21.901Z,25.49
2018-09-13T11:18:54.044Z,24.96
2018-09-13T11:21:26.123Z,25.58
2018-09-13T11:23:58.343Z,26.55
2018-09-13T11:26:30.443Z,26.12
2018-09-13T11:29:02.526Z,25.74
2018-09-13T11:31:34.606Z,25.33
2018-09-13T11:34:06.695Z,25.63
2018-09-13T11:36:38.805Z,25.95
2018-09-13T11:39:11.844Z,25.63
2018-09-13T11:41:44.009Z,26.36
2018-09-13T11:44:16.095Z,26.94
2018-09-13T11:46:48.271Z,27.05
2018-09-13T11:49:20.460Z,27.27
2018-09-13T11:51:52.542Z,28.18
2018-09-13T11:54:24.626Z,28.20
2018-09-13T11:56:56.786Z,28.56
2018-09-13T11:59:28.819Z,29.24
2018-09-13T12:02:01.007Z,29.24
2018-09-13T12:04:33.086Z,28.94
2018-09-13T12:07:05.253Z,28.10
2018-09-13T12:09:37.445Z,27.93
2018-09-13T12:12:09.561Z,27.84
2018-09-13T12:14:41.604Z,28.33
2018-09-13T12:17:13.666Z,28.29
2018-09-13T12:19:46.818Z,28.34
2018-09-13T12:22:18.871Z,28.36
2018-09-13T12:24:51.031Z,28.04
2018-09-13T12:27:23.270Z,28.21
2018-09-13T12:29:55.324Z,28.75
2018-09-13T12:32:27.468Z,29.53
2018-09-13T12:34:59.496Z,30.07
2018-09-13T12:37:31.632Z,29.60
2018-09-13T12:40:04.250Z,29.49
2018-09-13T12:42:36.405Z,29.22
2018-09-13T12:45:09.243Z,29.54
2018-09-13T12:47:41.461Z,29.72
2018-09-13T12:50:13.603Z,29.55
2018-09-13T12:52:45.757Z,29.16
2018-09-13T12:55:17.934Z,29.53
2018-09-13T12:57:49.964Z,30.14
2018-09-13T13:00:22.073Z,29.77
2018-09-13T13:02:54.215Z,29.50
2018-09-13T13:05:26.342Z,30.14
2018-09-13T13:07:58.509Z,31.43
2018-09-13T13:10:30.692Z,31.86
2018-09-13T13:13:02.921Z,31.81
2018-09-13T13:15:35.020Z,32.82
2018-09-13T13:18:07.128Z,33.98
2018-09-13T13:20:39.212Z,35.01
2018-09-13T13:23:11.355Z,35.84
2018-09-13T13:25:43.431Z,33.01
2018-09-13T13:28:15.638Z,31.29
2018-09-13T13:30:47.784Z,29.60
2018-09-13T13:33:19.870Z,29.27
2018-09-13T13:35:51.988Z,29.23
2018-09-13T13:38:24.068Z,28.94
2018-09-13T13:40:56.164Z,28.47
2018-09-13T13:43:28.256Z,28.07
2018-09-13T13:46:00.556Z,27.79
2018-09-13T13:48:32.669Z,27.67
2018-09-13T13:51:04.784Z,27.79
2018-09-13T13:53:36.834Z,27.73
2018-09-13T13:56:08.916Z,27.87
2018-09-13T13:58:41.009Z,28.19
2018-09-13T14:01:13.119Z,28.20
2018-09-13T14:03:45.233Z,28.05
2018-09-13T14:06:17.327Z,28.03
2018-09-13T14:08:49.392Z,27.98
2018-09-13T14:11:21.432Z,28.00
2018-09-13T14:13:53.536Z,27.63
2018-09-13T14:16:25.692Z,27.79
2018-09-13T14:18:57.757Z,27.60
2018-09-13T14:21:30.031Z,27.12
2018-09-13T14:24:02.158Z,26.86
2018-09-13T14:26:34.235Z,26.42
2018-09-13T14:29:06.379Z,26.13
2018-09-13T14:31:38.492Z,25.90
2018-09-13T14:34:10.520Z,24.71
2018-09-13T14:36:42.738Z,22.90
2018-09-13T14:39:14.821Z,21.75
2018-09-13T14:41:46.949Z,20.86
2018-09-13T14:44:19.205Z,20.56
2018-09-13T14:46:51.560Z,20.46
2018-09-13T14:49:25.788Z,20.36
2018-09-13T14:51:57.949Z,20.33
2018-09-13T14:54:30.060Z,20.18
2018-09-13T14:57:02.256Z,20.07
2018-09-13T14:59:35.323Z,19.81
2018-09-13T15:02:07.458Z,19.56
2018-09-13T15:04:39.836Z,19.68
2018-09-13T15:07:13.204Z,20.18
2018-09-13T15:09:45.329Z,20.76
2018-09-13T15:12:17.439Z,21.70
2018-09-13T15:14:49.546Z,22.04
2018-09-13T15:17:22.696Z,22.45
2018-09-13T15:19:54.830Z,22.87
2018-09-13T15:22:26.863Z,22.51
2018-09-13T15:24:58.990Z,22.73
2018-09-13T15:27:31.056Z,22.85
2018-09-13T15:30:03.232Z,22.84
2018-09-13T15:32:35.313Z,22.81
2018-09-13T15:35:07.451Z,22.73
2018-09-13T15:37:39.519Z,22.62
2018-09-13T15:40:11.724Z,22.28
2018-09-13T15:42:43.999Z,22.02
2018-09-13T15:45:16.044Z,22.08
2018-09-13T15:47:48.129Z,22.07
2018-09-13T15:50:20.447Z,21.82
2018-09-13T15:52:52.588Z,21.70
2018-09-13T15:55:24.652Z,21.64
2018-09-13T15:57:57.079Z,21.55
2018-09-13T16:00:29.347Z,21.36
2018-09-13T16:03:01.411Z,21.34
2018-09-13T16:05:33.466Z,21.33
2018-09-13T16:08:05.596Z,21.19
2018-09-13T16:10:37.700Z,21.30
2018-09-13T16:13:09.808Z,21.18
2018-09-13T16:15:41.832Z,21.12
2018-09-13T16:18:14.044Z,20.93
2018-09-13T16:20:46.129Z,20.92
2018-09-13T16:23:18.248Z,20.87
2018-09-13T16:25:50.303Z,20.80
2018-09-13T16:28:22.435Z,20.64
2018-09-13T16:30:54.531Z,20.55
2018-09-13T16:33:26.619Z,20.47
2018-09-13T16:36:00.238Z,20.35
2018-09-13T16:38:39.124Z,20.26
2018-09-13T16:41:17.027Z,20.21
2018-09-13T16:43:54.887Z,20.16
2018-09-13T16:46:32.970Z,20.14
2018-09-13T16:49:05.535Z,20.07
2018-09-13T16:51:37.616Z,20.06
2018-09-13T16:54:09.682Z,20.08
2018-09-13T16:56:41.774Z,20.07
2018-09-13T16:59:13.887Z,20.09
2018-09-13T17:01:46.021Z,20.10
2018-09-13T17:04:18.146Z,20.08
2018-09-13T17:06:50.286Z,19.95
2018-09-13T17:09:22.411Z,19.84
2018-09-13T17:11:54.781Z,19.80
2018-09-13T17:14:26.923Z,19.73
2018-09-13T17:16:59.017Z,19.51
2018-09-13T17:19:31.178Z,19.32
2018-09-13T17:22:03.325Z,19.22
2018-09-13T17:24:35.748Z,19.04
2018-09-13T17:27:07.980Z,18.92
2018-09-13T17:29:40.066Z,18.84
2018-09-13T17:32:12.197Z,18.73
2018-09-13T17:34:44.402Z,18.63
2018-09-13T17:37:16.529Z,18.61
2018-09-13T17:39:48.732Z,18.57
2018-09-13T17:42:20.847Z,18.50
2018-09-13T17:44:53.032Z,18.52
2018-09-13T17:47:25.181Z,18.47
2018-09-13T17:49:57.328Z,18.47
2018-09-13T17:52:29.448Z,18.45
2018-09-13T17:55:01.576Z,18.50
2018-09-13T17:57:34.024Z,18.46
2018-09-13T18:00:07.726Z,18.45
2018-09-13T18:02:39.928Z,18.45
2018-09-13T18:05:12.116Z,18.42
2018-09-13T18:07:44.279Z,18.42
2018-09-13T18:10:16.468Z,18.37
2018-09-13T18:12:48.626Z,18.29
2018-09-13T18:15:20.912Z,18.24
2018-09-13T18:17:52.805Z,18.22
2018-09-13T18:20:24.939Z,18.22
2018-09-13T18:22:57.182Z,18.16
2018-09-13T18:25:29.325Z,18.16
2018-09-13T18:28:01.496Z,18.17
2018-09-13T18:30:33.835Z,18.08
2018-09-13T18:33:05.961Z,17.98
2018-09-13T18:35:38.027Z,17.96
2018-09-13T18:38:10.115Z,17.81
2018-09-13T18:40:42.279Z,17.76
2018-09-13T18:43:14.406Z,17.72
2018-09-13T18:45:46.612Z,17.74
2018-09-13T18:48:18.726Z,17.74
2018-09-13T18:50:50.925Z,17.80
2018-09-13T18:53:23.055Z,17.85
2018-09-13T18:55:55.309Z,17.92
2018-09-13T18:58:27.545Z,17.91
2018-09-13T19:00:59.579Z,17.86
2018-09-13T19:03:31.728Z,17.80
2018-09-13T19:06:04.052Z,17.75
2018-09-13T19:08:36.200Z,17.83
2018-09-13T19:11:08.601Z,17.88
2018-09-13T19:13:40.730Z,17.94
2018-09-13T19:16:12.830Z,17.83
2018-09-13T19:18:44.884Z,17.79
2018-09-13T19:21:16.939Z,17.76
2018-09-13T19:23:48.976Z,17.76
2018-09-13T19:26:21.028Z,17.81
2018-09-13T19:28:53.161Z,17.83
2018-09-13T19:31:25.227Z,17.84
2018-09-13T19:33:57.353Z,17.87
2018-09-13T19:36:29.433Z,17.78
2018-09-13T19:39:01.516Z,17.75
2018-09-13T19:41:33.638Z,17.74
2018-09-13T19:44:05.771Z,17.73
2018-09-13T19:46:37.859Z,17.83
2018-09-13T19:49:09.945Z,17.84
2018-09-13T19:51:42.083Z,17.84
2018-09-13T19:54:14.183Z,17.86
2018-09-13T19:56:46.948Z,17.90
2018-09-13T19:59:19.033Z,17.91
2018-09-13T20:01:51.071Z,17.88
2018-09-13T20:04:23.164Z,18.05
2018-09-13T20:06:55.205Z,17.99
2018-09-13T20:09:27.404Z,18.01
2018-09-13T20:11:59.638Z,18.00
2018-09-13T20:14:31.730Z,18.03
2018-09-13T20:17:03.840Z,17.99
2018-09-13T20:19:35.907Z,17.96
2018-09-13T20:22:09.621Z,17.93
2018-09-13T20:24:41.742Z,17.94
2018-09-13T20:27:13.776Z,17.95
2018-09-13T20:29:45.851Z,17.95
2018-09-13T20:32:17.903Z,17.93
2018-09-13T20:34:49.975Z,18.00
2018-09-13T20:37:22.023Z,17.92
2018-09-13T20:39:54.096Z,18.04
2018-09-13T20:42:26.171Z,17.93
2018-09-13T20:44:58.250Z,17.98
2018-09-13T20:47:30.362Z,17.91
2018-09-13T20:50:02.443Z,17.84
2018-09-13T20:52:34.490Z,17.81
2018-09-13T20:55:06.548Z,17.80
2018-09-13T20:57:38.631Z,17.79
2018-09-13T21:00:15.273Z,17.81
2018-09-13T21:02:48.425Z,17.86
2018-09-13T21:05:20.475Z,17.84
2018-09-13T21:07:52.532Z,17.83
2018-09-13T21:10:24.569Z,17.82
2018-09-13T21:12:56.708Z,17.79
2018-09-13T21:15:28.755Z,17.82
2018-09-13T21:18:00.805Z,17.84
2018-09-13T21:20:32.932Z,17.83
2018-09-13T21:23:05.031Z,17.80
2018-09-13T21:25:37.174Z,17.79
2018-09-13T21:28:09.233Z,17.74
2018-09-13T21:30:41.347Z,17.78
2018-09-13T21:33:13.416Z,17.84
2018-09-13T21:35:45.486Z,17.91
2018-09-13T21:38:17.577Z,17.87
2018-09-13T21:40:49.805Z,17.87
2018-09-13T21:43:21.871Z,17.88
2018-09-13T21:45:53.908Z,17.86
2018-09-13T21:48:25.958Z,17.83
2018-09-13T21:50:58.028Z,17.83
2018-09-13T21:53:30.077Z,17.79
2018-09-13T21:56:02.138Z,17.82
2018-09-13T21:58:34.225Z,17.88
2018-09-13T22:01:06.287Z,17.85
2018-09-13T22:03:38.521Z,17.89
2018-09-13T22:06:10.581Z,17.83
2018-09-13T22:08:42.692Z,17.78
2018-09-13T22:11:14.835Z,17.72
2018-09-13T22:13:46.831Z,17.64
2018-09-13T22:16:18.892Z,17.55
2018-09-13T22:18:50.955Z,17.57
2018-09-13T22:21:23.019Z,17.63
2018-09-13T22:23:55.068Z,17.64
2018-09-13T22:26:27.108Z,17.67
2018-09-13T22:28:59.182Z,17.66
2018-09-13T22:31:31.274Z,17.66
2018-09-13T22:34:05.793Z,17.61
2018-09-13T22:36:37.847Z,17.63
2018-09-13T22:39:10.880Z,17.60
2018-09-13T22:41:42.936Z,17.59
2018-09-13T22:44:14.992Z,17.55
2018-09-13T22:46:47.032Z,17.52
2018-09-13T22:49:19.098Z,17.51
2018-09-13T22:51:51.123Z,17.46
2018-09-13T22:54:23.198Z,17.41
2018-09-13T22:56:55.235Z,17.31
2018-09-13T22:59:27.368Z,17.29
2018-09-13T23:01:59.440Z,17.31
2018-09-13T23:04:31.455Z,17.37
2018-09-13T23:07:03.504Z,17.37
2018-09-13T23:09:35.663Z,17.37
2018-09-13T23:12:07.943Z,17.39
2018-09-13T23:14:39.972Z,17.35
2018-09-13T23:17:12.035Z,17.35
2018-09-13T23:19:44.077Z,17.32
2018-09-13T23:22:16.112Z,17.30
2018-09-13T23:24:48.178Z,17.25
2018-09-13T23:27:20.192Z,17.22
2018-09-13T23:29:52.236Z,17.24
2018-09-13T23:32:24.498Z,17.24
2018-09-13T23:35:59.975Z,17.22
2018-09-13T23:38:32.036Z,17.20
2018-09-13T23:41:04.138Z,17.16
2018-09-13T23:43:36.165Z,17.16
2018-09-13T23:46:08.293Z,17.18
2018-09-13T23:48:41.124Z,17.18
2018-09-13T23:51:13.167Z,17.08
2018-09-13T23:53:45.219Z,17.07
2018-09-13T23:56:17.242Z,16.96
2018-09-13T23:58:49.310Z,16.92
